Time;durP1;ratioP1;P1;durP2;ratioP2;P2;SDS_P1;SDS_P2;PMS_P1;PMS_P2;Temp;Humidity;BMP_temperature;BMP_pressure;BME280_temperature;BME280_humidity;BME280_pressure;Samples;Min_cycle;Max_cycle;Signal;HPM_P1;HPM_P2
2023/07/01 16:21:00;;;;;;;;;1.00;1.00;;;;;25.66;46.53;100233.75;5101700;27;45377;-58
2023/07/01 16:25:50;;;;;;;;;2.60;2.00;;;;;25.62;41.50;100220.69;5082649;27;45326;-81
2023/07/01 16:28:38;;;;;;;;;2.80;2.20;;;;;26.55;39.20;100211.53;5051322;27;45343;-84
2023/07/01 16:32:01;;;;;;;;;3.00;3.00;;;;;28.14;36.56;100238.53;5141078;27;45361;-82
2023/07/01 16:34:27;;;;;;;;;3.00;3.00;;;;;27.89;37.21;100219.16;5126913;27;45732;-87
2023/07/01 16:36:52;;;;;;;;;4.75;3.25;;;;;27.82;36.83;100206.50;5101922;27;45215;-81
2023/07/01 16:39:18;;;;;;;;;8.00;5.00;;;;;28.89;35.60;100219.16;5101711;27;45578;-89
2023/07/01 16:41:44;;;;;;;;;3.75;3.00;;;;;28.37;34.41;100204.47;5131910;27;46950;-81
2023/07/01 16:44:09;;;;;;;;;2.80;2.80;;;;;27.81;35.29;100213.88;5112990;27;45330;-86
2023/07/01 16:46:37;;;;;;;;;4.75;3.75;;;;;27.29;35.62;100185.31;5114196;27;45764;-85
2023/07/01 16:49:05;;;;;;;;;5.60;4.80;;;;;27.49;35.82;100233.72;5120616;27;45435;-82
2023/07/01 16:51:31;;;;;;;;;3.60;3.60;;;;;27.35;36.07;100232.00;5116156;27;47435;-85
2023/07/01 16:54:34;;;;;;;;;3.00;3.00;;;;;27.12;37.11;100213.19;5135027;27;45614;-88
2023/07/01 16:57:00;;;;;;;;;3.60;3.60;;;;;27.06;36.56;100233.94;5079138;27;45500;-83
2023/07/01 16:59:28;;;;;;;;;4.75;3.50;;;;;26.88;36.29;100247.22;5132843;27;45373;-85
2023/07/01 17:01:54;;;;;;;;;3.00;3.00;;;;;26.58;36.31;100241.16;5101783;27;46325;-84
2023/07/01 17:04:25;;;;;;;;;4.25;4.25;;;;;26.67;37.80;100245.41;5133455;27;45278;-82
2023/07/01 17:06:50;;;;;;;;;9.00;5.00;;;;;26.67;36.35;100201.75;5120711;27;45530;-82
2023/07/01 17:09:39;;;;;;;;;5.50;5.50;;;;;26.85;36.10;100221.19;5130520;27;45394;-92
2023/07/01 17:12:05;;;;;;;;;7.60;6.80;;;;;26.89;35.88;100233.38;5112581;27;45305;-86
2023/07/01 17:14:40;;;;;;;;;6.00;6.00;;;;;26.89;36.17;100249.75;5132564;27;45219;-87
2023/07/01 17:17:29;;;;;;;;;6.20;6.20;;;;;26.74;36.74;100247.16;5127609;27;45307;-86
2023/07/01 17:19:59;;;;;;;;;5.20;4.40;;;;;26.57;36.36;100239.47;5113819;27;45448;-82
2023/07/01 17:22:26;;;;;;;;;5.60;5.60;;;;;26.33;36.42;100211.56;5127724;27;45439;-85
2023/07/01 17:24:52;;;;;;;;;9.40;7.60;;;;;26.56;36.54;100248.66;5113852;27;45405;-84
2023/07/01 17:27:18;;;;;;;;;10.00;8.40;;;;;26.33;36.82;100227.94;5123846;27;45507;-85
2023/07/01 17:29:45;;;;;;;;;9.00;9.00;;;;;26.29;36.95;100242.13;5130767;27;45575;-89
2023/07/01 17:32:12;;;;;;;;;8.80;7.20;;;;;26.23;37.33;100235.59;5119842;27;46376;-89
2023/07/01 17:35:03;;;;;;;;;8.60;7.20;;;;;26.08;37.72;100224.78;5118874;27;45500;-82
2023/07/01 17:37:28;;;;;;;;;11.40;10.40;;;;;26.05;38.26;100236.06;5128023;27;45526;-82
2023/07/01 17:39:53;;;;;;;;;7.75;7.75;;;;;26.00;38.46;100270.38;5131959;27;45334;-83
2023/07/01 17:42:19;;;;;;;;;9.50;8.50;;;;;25.58;39.00;100253.75;5112333;27;47129;-85
2023/07/01 17:44:49;;;;;;;;;7.00;7.00;;;;;25.14;39.12;100207.56;5108767;27;45723;-87
2023/07/01 17:47:17;;;;;;;;;7.00;6.80;;;;;25.35;39.63;100277.53;5104034;27;45484;-83
2023/07/01 17:49:42;;;;;;;;;10.20;8.40;;;;;24.83;39.65;100190.56;5094864;27;45788;-84
2023/07/01 17:52:09;;;;;;;;;9.00;9.00;;;;;25.11;40.06;100269.66;5117236;27;45903;-85
2023/07/01 17:54:34;;;;;;;;;6.60;6.60;;;;;24.94;39.88;100256.22;5104899;27;45431;-85
2023/07/01 17:57:00;;;;;;;;;11.00;8.25;;;;;24.80;39.77;100231.75;5098074;27;45747;-84
2023/07/01 17:59:26;;;;;;;;;16.25;14.50;;;;;25.12;40.15;100277.63;5114140;27;45623;-88
2023/07/01 18:01:51;;;;;;;;;9.75;9.75;;;;;24.75;40.23;100223.31;5100759;27;45409;-86
2023/07/01 18:04:17;;;;;;;;;14.00;13.50;;;;;25.08;40.45;100298.09;5096960;27;45299;-83
2023/07/01 18:06:42;;;;;;;;;15.50;14.00;;;;;24.80;40.37;100261.66;5096923;27;45382;-82
2023/07/01 18:09:07;;;;;;;;;8.25;8.25;;;;;24.78;40.28;100294.47;5097674;27;45449;-83
2023/07/01 18:11:33;;;;;;;;;15.50;12.75;;;;;24.69;40.95;100296.44;5114183;27;45880;-82
2023/07/01 18:13:58;;;;;;;;;17.00;13.00;;;;;24.51;41.20;100284.22;5098161;27;45772;-82
2023/07/01 18:16:24;;;;;;;;;15.50;14.75;;;;;24.48;41.30;100290.88;5107004;27;45183;-84
2023/07/01 18:18:50;;;;;;;;;15.00;13.75;;;;;24.54;41.25;100289.28;5110536;27;45438;-84
2023/07/01 18:21:16;;;;;;;;;6.75;5.50;;;;;24.58;41.11;100272.41;5101899;27;46990;-83
2023/07/01 18:23:41;;;;;;;;;19.75;16.00;;;;;24.62;40.75;100270.19;5132182;27;45362;-87
2023/07/01 18:26:08;;;;;;;;;20.75;19.25;;;;;24.41;40.61;100252.69;5115706;27;45469;-84
2023/07/01 18:28:33;;;;;;;;;17.40;16.60;;;;;24.48;41.39;100263.69;5105679;27;45375;-88
2023/07/01 18:30:58;;;;;;;;;15.75;13.00;;;;;24.74;41.07;100308.63;5122119;27;47170;-83
2023/07/01 18:33:24;;;;;;;;;22.25;21.00;;;;;24.30;41.42;100238.69;5115088;27;45498;-85
2023/07/01 18:35:50;;;;;;;;;22.00;21.00;;;;;24.58;40.32;100249.81;5101719;27;45445;-86
2023/07/01 18:38:16;;;;;;;;;25.25;22.75;;;;;25.24;39.51;100297.91;5105242;27;45459;-84
2023/07/01 18:40:44;;;;;;;;;27.25;26.00;;;;;25.34;39.58;100296.78;5099152;27;46818;-90
2023/07/01 18:43:09;;;;;;;;;25.80;20.60;;;;;25.37;39.45;100296.41;5091363;27;45481;-88
2023/07/01 18:45:34;;;;;;;;;26.00;22.50;;;;;25.19;39.21;100308.53;5097013;27;45223;-83
2023/07/01 18:48:00;;;;;;;;;31.50;27.00;;;;;24.94;39.83;100307.91;5098815;27;45445;-83
2023/07/01 18:50:25;;;;;;;;;39.50;29.75;;;;;24.08;40.50;100224.91;5104430;27;47132;-82
2023/07/01 18:52:51;;;;;;;;;35.50;28.50;;;;;24.54;40.23;100333.63;5105715;27;45312;-83
2023/07/01 18:55:16;;;;;;;;;35.25;29.00;;;;;24.31;40.54;100313.75;5096204;27;45271;-81
2023/07/01 18:57:42;;;;;;;;;35.25;28.75;;;;;24.20;40.72;100325.00;5102567;27;45512;-83
2023/07/01 19:00:08;;;;;;;;;43.50;33.75;;;;;23.96;40.47;100313.31;5106183;27;46769;-82
2023/07/01 19:02:33;;;;;;;;;31.25;30.00;;;;;23.93;41.05;100346.22;5094312;27;45777;-82
2023/07/01 19:04:58;;;;;;;;;35.00;31.25;;;;;23.69;41.44;100324.63;5103049;27;45402;-83
2023/07/01 19:07:24;;;;;;;;;35.75;30.75;;;;;23.71;41.12;100341.63;5105479;27;45610;-84
2023/07/01 19:09:53;;;;;;;;;36.50;32.00;;;;;23.59;41.69;100349.28;5116087;27;45893;-85
2023/07/01 19:12:18;;;;;;;;;37.25;33.00;;;;;23.46;42.23;100335.41;5111077;27;45444;-84
2023/07/01 19:14:43;;;;;;;;;32.75;29.00;;;;;23.46;42.12;100341.69;5106373;27;45522;-85
2023/07/01 19:17:09;;;;;;;;;41.67;34.33;;;;;23.39;42.30;100351.53;5097120;27;45384;-84
2023/07/01 19:19:35;;;;;;;;;35.33;32.33;;;;;23.27;42.47;100354.78;5111315;27;45662;-84
2023/07/01 19:22:00;;;;;;;;;44.50;33.00;;;;;23.10;42.55;100343.97;5102694;27;45231;-83
2023/07/01 19:24:26;;;;;;;;;37.67;31.33;;;;;22.99;42.24;100332.63;5110529;27;45633;-84
2023/07/01 19:26:51;;;;;;;;;35.33;31.33;;;;;22.74;42.20;100313.66;5107157;27;45239;-80
2023/07/01 19:29:23;;;;;;;;;33.00;28.00;;;;;22.67;42.58;100331.66;5107761;27;46155;-85
2023/07/01 19:31:49;;;;;;;;;34.67;30.00;;;;;22.63;43.03;100350.09;5083480;27;45432;-86
2023/07/01 19:34:14;;;;;;;;;33.00;31.67;;;;;22.78;43.28;100382.78;5112701;27;45887;-83
2023/07/01 19:36:44;;;;;;;;;39.67;32.00;;;;;22.45;43.50;100359.41;5104835;27;45423;-83
2023/07/01 19:39:10;;;;;;;;;31.67;29.33;;;;;22.58;43.44;100379.56;5093829;27;45588;-84
2023/07/01 19:41:35;;;;;;;;;36.33;32.33;;;;;22.32;43.61;100339.09;5078416;27;45894;-84
2023/07/01 19:44:00;;;;;;;;;41.67;33.33;;;;;22.11;43.78;100330.56;5113588;27;45498;-85
2023/07/01 19:46:26;;;;;;;;;42.33;34.33;;;;;22.08;43.83;100329.06;5104947;27;45491;-86
2023/07/01 19:48:52;;;;;;;;;35.00;32.00;;;;;22.08;43.73;100333.63;5101013;27;46399;-86
2023/07/01 19:51:18;;;;;;;;;30.00;30.00;;;;;22.40;43.85;100394.28;5082700;27;45433;-86
2023/07/01 19:53:43;;;;;;;;;36.67;32.67;;;;;21.93;43.69;100329.84;5112154;27;45852;-87
2023/07/01 19:56:09;;;;;;;;;41.67;33.33;;;;;22.06;44.18;100371.72;5103840;27;45533;-86
2023/07/01 19:58:34;;;;;;;;;32.33;27.00;;;;;22.21;44.36;100417.97;5109213;27;46083;-85
2023/07/01 20:01:00;;;;;;;;;37.33;31.33;;;;;22.15;44.33;100405.09;5099118;27;45433;-86
2023/07/01 20:03:26;;;;;;;;;33.00;30.33;;;;;21.57;44.28;100326.50;5109801;27;45253;-86
2023/07/01 20:05:52;;;;;;;;;35.67;32.33;;;;;22.09;44.37;100430.09;5116795;27;45314;-86
2023/07/01 20:08:17;;;;;;;;;32.67;32.00;;;;;22.07;44.77;100424.84;5105307;27;45478;-84
2023/07/01 20:10:43;;;;;;;;;43.00;34.00;;;;;21.95;44.81;100412.59;5101420;27;45410;-84
2023/07/01 20:13:08;;;;;;;;;44.00;31.33;;;;;22.00;44.54;100440.03;5111051;27;45612;-83
2023/07/01 20:15:34;;;;;;;;;34.33;32.00;;;;;21.61;44.85;100377.41;5097492;27;45514;-84
2023/07/01 20:18:01;;;;;;;;;35.00;32.00;;;;;21.78;45.18;100425.22;5094372;27;48012;-81
2023/07/01 20:20:26;;;;;;;;;45.67;31.67;;;;;21.44;45.58;100381.91;5107405;27;45352;-84
2023/07/01 20:22:53;;;;;;;;;35.00;32.00;;;;;21.43;45.83;100401.00;5106780;27;45387;-83
2023/07/01 20:25:19;;;;;;;;;42.67;35.00;;;;;21.78;46.14;100459.56;5091544;27;45413;-84
2023/07/01 20:27:47;;;;;;;;;38.67;33.00;;;;;21.64;45.88;100441.22;5111380;27;45594;-82
2023/07/01 20:30:13;;;;;;;;;42.67;32.33;;;;;21.35;46.06;100395.53;5101629;27;45650;-85
2023/07/01 20:32:38;;;;;;;;;42.67;34.00;;;;;21.37;46.04;100401.69;5109626;27;45454;-84
2023/07/01 20:35:06;;;;;;;;;42.67;33.00;;;;;21.62;46.40;100460.34;5103295;27;45629;-81
2023/07/01 20:37:32;;;;;;;;;50.67;40.33;;;;;21.57;46.30;100462.66;5112843;27;45707;-83
2023/07/01 20:39:57;;;;;;;;;42.00;34.67;;;;;21.27;46.71;100417.16;5099363;27;45537;-83
2023/07/01 20:42:23;;;;;;;;;42.33;36.67;;;;;21.45;46.67;100451.25;5110042;27;45431;-83
2023/07/01 20:44:49;;;;;;;;;46.00;32.00;;;;;21.46;46.90;100466.47;5105016;27;45234;-83
2023/07/01 20:47:17;;;;;;;;;34.33;32.33;;;;;21.49;47.25;100468.03;5111041;27;45463;-81
2023/07/01 20:49:46;;;;;;;;;39.67;33.00;;;;;21.30;47.30;100454.69;5099030;27;45549;-82
2023/07/01 20:52:16;;;;;;;;;36.67;31.67;;;;;21.40;47.16;100471.69;5106508;27;45640;-81
2023/07/01 20:54:42;;;;;;;;;43.33;33.33;;;;;21.20;47.43;100433.13;5105673;27;45460;-81
2023/07/01 20:57:07;;;;;;;;;33.67;32.33;;;;;21.33;47.50;100476.00;5109987;27;46023;-82
2023/07/01 20:59:33;;;;;;;;;32.00;29.33;;;;;21.16;47.24;100456.09;5088240;27;45476;-83
2023/07/01 21:02:00;;;;;;;;;47.00;36.00;;;;;21.10;47.37;100449.47;5098013;27;45653;-80
2023/07/01 21:04:25;;;;;;;;;34.00;30.67;;;;;21.10;47.54;100460.28;5084881;27;45787;-82
2023/07/01 21:06:51;;;;;;;;;38.00;31.67;;;;;21.14;47.70;100477.88;5075444;27;45458;-80
2023/07/01 21:09:17;;;;;;;;;45.00;33.67;;;;;21.20;47.78;100487.22;5074259;27;45442;-83
2023/07/01 21:11:45;;;;;;;;;33.00;29.33;;;;;21.08;47.89;100481.19;5085483;27;45332;-80
2023/07/01 21:14:11;;;;;;;;;34.67;31.00;;;;;20.90;48.05;100464.16;5096118;27;45559;-80
2023/07/01 21:16:37;;;;;;;;;44.67;35.33;;;;;21.04;48.41;100493.34;5094268;27;45562;-83
2023/07/01 21:19:06;;;;;;;;;35.67;33.67;;;;;20.99;48.31;100501.09;5098524;27;45565;-80
2023/07/01 21:21:32;;;;;;;;;38.67;32.67;;;;;21.02;48.53;100516.97;5077686;28;45421;-81
2023/07/01 21:23:58;;;;;;;;;40.33;32.67;;;;;20.85;48.67;100493.53;5085033;27;45493;-81
2023/07/01 21:26:26;;;;;;;;;34.67;32.00;;;;;20.76;48.79;100479.06;5097583;27;45384;-82
2023/07/01 21:28:53;;;;;;;;;38.33;31.33;;;;;20.97;48.77;100513.91;5097851;27;45390;-80
2023/07/01 21:31:19;;;;;;;;;36.00;32.00;;;;;20.96;48.86;100517.59;5098066;27;46801;-81
2023/07/01 21:33:45;;;;;;;;;41.67;34.67;;;;;20.71;49.12;100475.13;5099526;27;45386;-81
2023/07/01 21:36:13;;;;;;;;;36.33;32.00;;;;;20.69;49.01;100471.72;5097948;27;47320;-79
2023/07/01 21:38:38;;;;;;;;;37.67;34.00;;;;;20.98;49.13;100515.59;5099105;27;45432;-79
2023/07/01 21:41:04;;;;;;;;;42.00;34.67;;;;;20.99;48.75;100522.72;5097361;27;45263;-80
2023/07/01 21:43:31;;;;;;;;;38.33;32.67;;;;;20.94;48.92;100502.53;5099802;27;45608;-80
2023/07/01 21:45:57;;;;;;;;;40.67;33.00;;;;;21.04;49.06;100519.53;5099314;27;45646;-80
2023/07/01 21:48:27;;;;;;;;;40.00;31.33;;;;;21.00;49.08;100497.38;5097170;27;45454;-81
2023/07/01 21:51:03;;;;;;;;;39.33;31.67;;;;;21.12;49.00;100517.75;5096933;27;45441;-81
2023/07/01 21:53:37;;;;;;;;;37.00;32.00;;;;;20.57;49.16;100434.16;5097748;27;45315;-80
2023/07/01 21:56:07;;;;;;;;;34.33;31.67;;;;;20.84;49.46;100498.06;5099035;27;45915;-81
2023/07/01 21:58:36;;;;;;;;;41.33;36.00;;;;;20.90;49.57;100519.06;5098567;27;45525;-79
2023/07/01 22:01:24;;;;;;;;;42.00;32.67;;;;;20.83;49.63;100528.81;5099258;27;45366;-80
2023/07/01 22:03:52;;;;;;;;;38.00;32.67;;;;;20.75;49.82;100509.81;5082096;27;45442;-81
2023/07/01 22:06:17;;;;;;;;;37.67;32.33;;;;;20.69;49.66;100501.44;5098467;27;46349;-79
2023/07/01 22:08:44;;;;;;;;;45.33;33.33;;;;;20.76;49.74;100524.16;5098012;27;45239;-80
2023/07/01 22:11:10;;;;;;;;;41.67;33.33;;;;;20.67;49.84;100501.59;5097080;27;45381;-81
2023/07/01 22:13:38;;;;;;;;;33.33;31.00;;;;;20.52;50.07;100484.22;5099087;27;45471;-81
2023/07/01 22:16:04;;;;;;;;;42.33;33.67;;;;;20.29;50.09;100454.03;5097972;27;45561;-81
2023/07/01 22:18:29;;;;;;;;;43.33;36.00;;;;;20.44;50.14;100474.16;5096900;27;45764;-80
2023/07/01 22:20:56;;;;;;;;;35.33;31.67;;;;;20.25;49.71;100437.31;5098460;27;45352;-80
2023/07/01 22:23:21;;;;;;;;;37.00;32.33;;;;;20.50;49.96;100487.06;5098535;27;45626;-80
2023/07/01 22:25:47;;;;;;;;;44.00;32.00;;;;;20.80;49.85;100528.25;5098466;27;45512;-80
2023/07/01 22:28:12;;;;;;;;;36.67;33.33;;;;;20.77;49.87;100539.38;5096826;27;45600;-81
2023/07/01 22:30:38;;;;;;;;;39.00;32.67;;;;;20.73;50.04;100527.19;5098112;27;45511;-80
2023/07/01 22:33:04;;;;;;;;;33.33;30.67;;;;;20.53;50.40;100510.22;5098935;27;45729;-80
2023/07/01 22:35:29;;;;;;;;;36.00;32.67;;;;;20.61;50.50;100535.50;5098830;27;45444;-80
2023/07/01 22:37:57;;;;;;;;;40.33;32.33;;;;;20.54;50.81;100537.09;5098157;27;45321;-80
2023/07/01 22:40:22;;;;;;;;;32.67;30.67;;;;;20.55;50.84;100533.38;5114434;27;45515;-80
2023/07/01 22:42:47;;;;;;;;;42.67;34.33;;;;;20.56;50.41;100536.94;5098547;27;45538;-81
2023/07/01 22:45:13;;;;;;;;;40.33;33.67;;;;;20.56;50.50;100532.38;5097864;27;46579;-80
2023/07/01 22:47:38;;;;;;;;;44.00;32.67;;;;;20.47;50.58;100524.34;5097544;27;48259;-80
2023/07/01 22:50:14;;;;;;;;;45.00;34.33;;;;;20.43;50.60;100521.09;5098445;27;45294;-80
2023/07/01 22:52:40;;;;;;;;;46.00;32.33;;;;;20.38;50.55;100509.88;5098064;27;45382;-80
2023/07/01 22:55:06;;;;;;;;;38.33;34.33;;;;;20.46;50.79;100531.63;5097858;27;45434;-80
2023/07/01 22:57:31;;;;;;;;;38.00;33.67;;;;;20.32;50.85;100502.38;5097664;27;45432;-79
2023/07/01 22:59:58;;;;;;;;;41.33;33.67;;;;;20.51;50.34;100540.09;5098315;27;45407;-79
2023/07/01 23:02:23;;;;;;;;;34.00;31.33;;;;;20.55;50.85;100546.91;5096128;27;45406;-79
2023/07/01 23:04:50;;;;;;;;;42.00;32.33;;;;;20.42;51.05;100524.78;5097538;27;46407;-79
2023/07/01 23:07:16;;;;;;;;;42.00;33.00;;;;;20.25;50.92;100502.13;5096095;27;46105;-80
2023/07/01 23:09:41;;;;;;;;;41.33;34.33;;;;;20.18;51.35;100500.16;5097652;27;45447;-78
2023/07/01 23:12:07;;;;;;;;;36.67;33.33;;;;;20.06;51.11;100477.09;5097404;27;45608;-80
2023/07/01 23:14:33;;;;;;;;;42.67;34.33;;;;;20.27;51.07;100520.88;5089551;27;45431;-80
2023/07/01 23:16:58;;;;;;;;;35.67;29.67;;;;;20.43;51.32;100561.59;5097778;27;45441;-79
2023/07/01 23:19:23;;;;;;;;;42.00;33.67;;;;;20.33;51.56;100550.00;5096132;27;45459;-80
2023/07/01 23:21:53;;;;;;;;;39.67;31.00;;;;;20.27;51.53;100550.56;5098853;27;45657;-79
2023/07/01 23:24:27;;;;;;;;;40.67;34.33;;;;;20.25;51.50;100550.72;5097748;27;45387;-80
2023/07/01 23:26:56;;;;;;;;;39.67;30.00;;;;;20.28;51.72;100557.69;5097925;27;45256;-80
2023/07/01 23:29:23;;;;;;;;;39.67;31.67;;;;;20.21;51.82;100559.28;5097140;27;45441;-80
2023/07/01 23:31:51;;;;;;;;;36.67;31.67;;;;;20.12;52.11;100561.00;5097575;27;45539;-80
2023/07/01 23:34:16;;;;;;;;;37.67;32.67;;;;;19.93;52.24;100540.34;5097893;27;48094;-79
2023/07/01 23:36:41;;;;;;;;;39.00;30.67;;;;;20.13;52.25;100567.25;5098187;27;45416;-80
2023/07/01 23:39:07;;;;;;;;;40.00;30.00;;;;;19.93;52.66;100561.94;5097842;27;45295;-81
2023/07/01 23:41:32;;;;;;;;;38.00;32.67;;;;;19.97;52.60;100579.53;5097408;27;45552;-80
2023/07/01 23:43:58;;;;;;;;;34.33;31.33;;;;;19.93;52.88;100575.44;5095587;27;46654;-80
2023/07/01 23:46:23;;;;;;;;;39.67;33.00;;;;;19.50;52.53;100489.59;5095203;27;53401;-79
2023/07/01 23:48:49;;;;;;;;;40.33;34.67;;;;;19.61;52.84;100519.13;5096888;27;45450;-81
2023/07/01 23:51:14;;;;;;;;;36.67;31.67;;;;;19.81;53.28;100552.31;5097407;27;45596;-78
2023/07/01 23:53:40;;;;;;;;;43.33;32.00;;;;;19.73;53.51;100549.50;5096648;27;46017;-79
2023/07/01 23:56:05;;;;;;;;;31.33;30.33;;;;;19.70;53.51;100555.19;5096144;27;45400;-80
2023/07/01 23:58:32;;;;;;;;;31.67;28.00;;;;;19.43;53.80;100527.09;5096798;27;45367;-78
